Time;durP1;ratioP1;P1;durP2;ratioP2;P2;SDS_P1;SDS_P2;PMS_P1;PMS_P2;Temp;Humidity;BMP_temperature;BMP_pressure;BME280_temperature;BME280_humidity;BME280_pressure;Samples;Min_cycle;Max_cycle;Signal;HPM_P1;HPM_P2
2023/06/03 00:00:25;;;;;;;;;;;;;;;13.99;100.00;99339.13;5032935;28;824;-60
2023/06/03 00:02:52;;;;;;;;;;;;;;;14.13;100.00;99334.44;5032858;28;824;-61
2023/06/03 00:05:20;;;;;;;;;;;;;;;14.08;100.00;99350.44;5032712;28;882;-60
2023/06/03 00:07:46;;;;;;;;;;;;;;;13.95;100.00;99355.13;5032759;28;832;-61
2023/06/03 00:10:13;;;;;;;;;;;;;;;13.78;100.00;99343.25;5032919;28;919;-61
2023/06/03 00:12:41;;;;;;;;;;;;;;;13.60;100.00;99342.91;5032398;28;1332;-61
2023/06/03 00:15:07;;;;;;;;;;;;;;;13.47;100.00;99340.84;5032610;28;941;-61
2023/06/03 00:17:34;;;;;;;;;;;;;;;13.45;100.00;99342.50;5032489;28;1906;-61
2023/06/03 00:20:08;;;;;;;;;;;;;;;13.50;100.00;99336.41;5032514;28;848;-61
2023/06/03 00:22:36;;;;;;;;;;;;;;;13.58;100.00;99335.03;5032339;28;919;-60
2023/06/03 00:25:04;;;;;;;;;;;;;;;13.58;100.00;99340.56;5032905;28;780;-60
2023/06/03 00:27:31;;;;;;;;;;;;;;;13.52;100.00;99330.44;5032606;28;800;-60
2023/06/03 00:29:58;;;;;;;;;;;;;;;13.48;100.00;99324.94;5032600;28;859;-60
2023/06/03 00:32:24;;;;;;;;;;;;;;;13.57;100.00;99327.13;5033072;28;769;-60
2023/06/03 00:34:51;;;;;;;;;;;;;;;13.65;100.00;99329.28;5032977;28;828;-60
2023/06/03 00:37:18;;;;;;;;;;;;;;;13.71;100.00;99334.31;5032262;28;1953;-60
2023/06/03 00:39:44;;;;;;;;;;;;;;;13.71;100.00;99335.09;5032486;28;836;-61
2023/06/03 00:42:11;;;;;;;;;;;;;;;13.61;100.00;99334.16;5032123;28;935;-60
2023/06/03 00:44:38;;;;;;;;;;;;;;;13.51;100.00;99334.44;5032145;28;820;-60
2023/06/03 00:47:05;;;;;;;;;;;;;;;13.45;100.00;99332.16;5031953;28;819;-60
2023/06/03 00:49:33;;;;;;;;;;;;;;;13.45;100.00;99339.72;5032006;28;883;-61
2023/06/03 00:52:01;;;;;;;;;;;;;;;13.55;100.00;99337.88;5032317;28;805;-60
2023/06/03 00:54:27;;;;;;;;;;;;;;;13.58;100.00;99331.47;5032353;28;833;-61
2023/06/03 00:56:56;;;;;;;;;;;;;;;13.60;100.00;99327.03;5032192;28;1886;-60
2023/06/03 00:59:23;;;;;;;;;;;;;;;13.72;100.00;99322.78;5031943;28;863;-60
2023/06/03 01:01:50;;;;;;;;;;;;;;;13.88;100.00;99322.75;5032059;28;883;-60
2023/06/03 01:04:25;;;;;;;;;;;;;;;14.04;100.00;99312.84;5032208;28;883;-60
2023/06/03 01:07:13;;;;;;;;;;;;;;;14.12;100.00;99316.19;5031769;28;935;-60
2023/06/03 01:09:45;;;;;;;;;;;;;;;13.97;100.00;99324.13;5031668;28;1563;-60
2023/06/03 01:12:12;;;;;;;;;;;;;;;13.78;100.00;99314.69;5031634;28;1540;-60
2023/06/03 01:15:03;;;;;;;;;;;;;;;13.62;100.00;99319.06;5031714;28;808;-60
2023/06/03 01:17:31;;;;;;;;;;;;;;;13.41;100.00;99322.34;5021913;28;2017;-60
2023/06/03 01:19:59;;;;;;;;;;;;;;;13.23;100.00;99320.00;5030321;28;1204;-60
2023/06/03 01:22:26;;;;;;;;;;;;;;;13.17;100.00;99308.63;5031499;28;887;-60
2023/06/03 01:25:06;;;;;;;;;;;;;;;13.21;100.00;99298.22;5031728;28;855;-60
2023/06/03 01:27:33;;;;;;;;;;;;;;;13.33;100.00;99304.31;5031448;28;824;-60
2023/06/03 01:30:00;;;;;;;;;;;;;;;13.56;100.00;99295.81;5031475;28;844;-60
2023/06/03 01:32:27;;;;;;;;;;;;;;;13.66;100.00;99289.19;5031410;28;894;-60
2023/06/03 01:34:54;;;;;;;;;;;;;;;13.66;100.00;99297.53;5037811;28;839;-61
2023/06/03 01:37:21;;;;;;;;;;;;;;;13.48;100.00;99299.97;5038104;28;1890;-61
2023/06/03 01:39:48;;;;;;;;;;;;;;;13.22;100.00;99301.75;5037988;28;815;-60
2023/06/03 01:42:15;;;;;;;;;;;;;;;13.00;100.00;99301.50;5038010;28;903;-60
2023/06/03 01:44:43;;;;;;;;;;;;;;;12.81;100.00;99295.53;5037948;28;835;-60
2023/06/03 01:47:10;;;;;;;;;;;;;;;12.73;100.00;99294.13;5038089;28;852;-60
2023/06/03 01:49:36;;;;;;;;;;;;;;;12.75;100.00;99300.03;5037861;28;885;-60
2023/06/03 01:52:03;;;;;;;;;;;;;;;12.74;100.00;99306.00;5037930;28;843;-60
2023/06/03 01:54:30;;;;;;;;;;;;;;;12.69;100.00;99310.06;5037818;28;918;-60
2023/06/03 01:56:57;;;;;;;;;;;;;;;12.60;100.00;99305.09;5037741;28;1891;-60
2023/06/03 01:59:24;;;;;;;;;;;;;;;12.53;100.00;99301.72;5037842;28;903;-60
2023/06/03 02:01:56;;;;;;;;;;;;;;;12.46;100.00;99303.44;5037981;28;886;-61
2023/06/03 02:04:23;;;;;;;;;;;;;;;12.43;100.00;99298.72;5037711;28;862;-61
2023/06/03 02:06:51;;;;;;;;;;;;;;;12.45;100.00;99298.31;5038046;28;828;-60
2023/06/03 02:09:17;;;;;;;;;;;;;;;12.45;100.00;99301.84;5037672;28;820;-60
2023/06/03 02:11:44;;;;;;;;;;;;;;;12.49;100.00;99296.25;5038035;28;1027;-60
2023/06/03 02:14:14;;;;;;;;;;;;;;;12.56;100.00;99304.41;5037593;28;860;-60
2023/06/03 02:16:41;;;;;;;;;;;;;;;12.60;100.00;99299.56;5037701;28;2086;-60
2023/06/03 02:19:19;;;;;;;;;;;;;;;12.65;100.00;99299.06;5037571;28;875;-60
2023/06/03 02:21:47;;;;;;;;;;;;;;;12.77;100.00;99289.31;5037798;28;863;-61
2023/06/03 02:24:17;;;;;;;;;;;;;;;12.88;100.00;99294.59;5037503;28;863;-60
2023/06/03 02:26:52;;;;;;;;;;;;;;;12.92;100.00;99289.75;5037380;28;1102;-60
2023/06/03 02:29:19;;;;;;;;;;;;;;;12.95;100.00;99283.38;5038040;28;796;-60
2023/06/03 02:31:46;;;;;;;;;;;;;;;12.98;100.00;99295.59;5037741;28;876;-60
2023/06/03 02:34:13;;;;;;;;;;;;;;;13.08;100.00;99295.34;5037750;28;894;-60
2023/06/03 02:36:40;;;;;;;;;;;;;;;13.22;100.00;99293.44;5037717;28;1986;-60
2023/06/03 02:39:07;;;;;;;;;;;;;;;13.32;100.00;99292.44;5037677;28;887;-60
2023/06/03 02:41:33;;;;;;;;;;;;;;;13.40;100.00;99291.06;5038114;28;855;-60
2023/06/03 02:44:00;;;;;;;;;;;;;;;13.42;100.00;99296.94;5037664;28;891;-60
2023/06/03 02:46:27;;;;;;;;;;;;;;;13.42;100.00;99296.94;5033137;28;871;-60
2023/06/03 02:48:54;;;;;;;;;;;;;;;13.41;100.00;99297.38;5034382;28;919;-60
2023/06/03 02:51:21;;;;;;;;;;;;;;;13.38;100.00;99299.03;5034766;28;882;-60
2023/06/03 02:53:47;;;;;;;;;;;;;;;13.33;100.00;99296.75;5034415;28;824;-60
2023/06/03 02:56:14;;;;;;;;;;;;;;;13.24;100.00;99297.34;5034428;28;856;-61
2023/06/03 02:58:41;;;;;;;;;;;;;;;13.17;100.00;99289.19;5033940;28;1886;-60
2023/06/03 03:01:08;;;;;;;;;;;;;;;13.11;100.00;99304.78;5034075;28;874;-60
2023/06/03 03:03:35;;;;;;;;;;;;;;;13.07;100.00;99298.53;5034020;28;843;-60
2023/06/03 03:06:11;;;;;;;;;;;;;;;13.06;100.00;99288.66;5034120;28;930;-60
2023/06/03 03:08:38;;;;;;;;;;;;;;;13.07;100.00;99296.53;5033918;28;828;-60
2023/06/03 03:11:06;;;;;;;;;;;;;;;13.11;100.00;99299.25;5034032;28;993;-61
2023/06/03 03:13:33;;;;;;;;;;;;;;;13.16;100.00;99295.16;5033536;28;1297;-60
2023/06/03 03:15:59;;;;;;;;;;;;;;;13.22;100.00;99293.44;5033764;28;895;-61
2023/06/03 03:18:26;;;;;;;;;;;;;;;13.28;100.00;99294.47;5033682;28;1938;-61
2023/06/03 03:20:53;;;;;;;;;;;;;;;13.33;100.00;99287.66;5033775;28;883;-60
2023/06/03 03:23:20;;;;;;;;;;;;;;;13.35;100.00;99285.22;5033562;28;828;-60
2023/06/03 03:25:46;;;;;;;;;;;;;;;13.37;100.00;99283.56;5033582;28;890;-61
2023/06/03 03:28:13;;;;;;;;;;;;;;;13.47;100.00;99281.75;5033550;28;934;-60
2023/06/03 03:30:40;;;;;;;;;;;;;;;13.59;100.00;99285.81;5033559;28;903;-60
2023/06/03 03:33:07;;;;;;;;;;;;;;;13.71;100.00;99287.88;5033381;28;1035;-60
2023/06/03 03:35:39;;;;;;;;;;;;;;;13.82;100.00;99287.59;5032287;28;1172;-61
2023/06/03 03:38:07;;;;;;;;;;;;;;;13.92;100.00;99286.56;5033347;28;1885;-61
2023/06/03 03:40:36;;;;;;;;;;;;;;;14.01;100.00;99280.34;5033239;28;901;-60
2023/06/03 03:43:03;;;;;;;;;;;;;;;14.07;100.00;99290.50;5033339;28;859;-60
2023/06/03 03:45:33;;;;;;;;;;;;;;;14.13;100.00;99281.63;5033169;28;852;-60
2023/06/03 03:48:09;;;;;;;;;;;;;;;14.20;100.00;99284.22;5033179;28;1086;-60
2023/06/03 03:50:43;;;;;;;;;;;;;;;14.26;100.00;99291.56;5033059;28;831;-60
2023/06/03 03:53:12;;;;;;;;;;;;;;;14.36;100.00;99284.16;5033058;28;815;-60
2023/06/03 03:55:40;;;;;;;;;;;;;;;14.46;100.00;99291.38;5032959;28;861;-60
2023/06/03 03:58:17;;;;;;;;;;;;;;;14.61;100.00;99304.91;5032683;28;1890;-60
2023/06/03 04:00:43;;;;;;;;;;;;;;;14.78;100.00;99302.81;5032976;28;852;-60
2023/06/03 04:03:12;;;;;;;;;;;;;;;14.92;100.00;99310.75;5032979;28;792;-60
2023/06/03 04:05:39;;;;;;;;;;;;;;;15.02;100.00;99300.50;5031515;28;892;-60
2023/06/03 04:08:05;;;;;;;;;;;;;;;15.04;100.00;99298.03;5032782;28;828;-60
2023/06/03 04:10:33;;;;;;;;;;;;;;;15.04;100.00;99301.63;5032790;28;930;-60
2023/06/03 04:13:00;;;;;;;;;;;;;;;15.16;100.00;99305.63;5032352;28;1457;-60
2023/06/03 04:15:32;;;;;;;;;;;;;;;15.40;100.00;99310.84;5032581;28;942;-60
2023/06/03 04:18:00;;;;;;;;;;;;;;;15.63;100.00;99304.13;5032541;28;1918;-60
2023/06/03 04:20:43;;;;;;;;;;;;;;;15.75;100.00;99305.34;5032484;28;913;-60
2023/06/03 04:23:19;;;;;;;;;;;;;;;15.92;100.00;99309.53;5032245;28;907;-61
2023/06/03 04:25:46;;;;;;;;;;;;;;;16.07;100.00;99316.16;5032510;28;820;-60
2023/06/03 04:28:13;;;;;;;;;;;;;;;16.24;100.00;99316.75;5032365;28;977;-60
2023/06/03 04:30:40;;;;;;;;;;;;;;;16.50;100.00;99316.63;5032299;28;872;-60
2023/06/03 04:33:07;;;;;;;;;;;;;;;16.77;100.00;99324.41;5032315;28;855;-60
2023/06/03 04:35:34;;;;;;;;;;;;;;;16.98;100.00;99328.41;5032198;28;872;-61
2023/06/03 04:38:01;;;;;;;;;;;;;;;17.09;100.00;99325.97;5032343;28;1894;-60
2023/06/03 04:40:28;;;;;;;;;;;;;;;17.11;100.00;99322.72;5030903;28;930;-61
2023/06/03 04:42:55;;;;;;;;;;;;;;;17.05;100.00;99321.78;5032111;28;821;-61
2023/06/03 04:45:23;;;;;;;;;;;;;;;17.03;100.00;99329.84;5032054;28;894;-61
2023/06/03 04:47:52;;;;;;;;;;;;;;;17.01;100.00;99326.72;5032006;28;907;-61
2023/06/03 04:50:24;;;;;;;;;;;;;;;17.14;100.00;99324.59;5031976;28;848;-60
2023/06/03 04:52:51;;;;;;;;;;;;;;;17.32;100.00;99338.63;5031884;28;966;-60
2023/06/03 04:55:17;;;;;;;;;;;;;;;17.42;100.00;99338.66;5032131;28;953;-61
2023/06/03 04:57:47;;;;;;;;;;;;;;;17.52;100.00;99343.81;5032031;28;1886;-61
2023/06/03 05:00:18;;;;;;;;;;;;;;;17.60;100.00;99352.66;5031747;28;962;-61
2023/06/03 05:02:55;;;;;;;;;;;;;;;17.63;100.00;99356.59;5031799;28;922;-61
2023/06/03 05:05:23;;;;;;;;;;;;;;;17.63;100.00;99356.59;5031781;28;937;-61
2023/06/03 05:07:50;;;;;;;;;;;;;;;17.63;100.00;99367.75;5031139;28;883;-61
2023/06/03 05:10:17;;;;;;;;;;;;;;;17.66;100.00;99367.59;5031609;28;922;-62
2023/06/03 05:12:49;;;;;;;;;;;;;;;17.74;100.00;99373.69;5031310;28;1234;-61
2023/06/03 05:15:15;;;;;;;;;;;;;;;17.87;100.00;99374.34;5031731;28;839;-61
2023/06/03 05:17:42;;;;;;;;;;;;;;;17.99;100.00;99375.47;5031395;28;1906;-61
2023/06/03 05:20:09;;;;;;;;;;;;;;;18.10;100.00;99380.63;5031869;28;895;-61
2023/06/03 05:22:36;;;;;;;;;;;;;;;18.18;100.00;99370.69;5031470;28;843;-61
2023/06/03 05:25:06;;;;;;;;;;;;;;;18.46;100.00;99373.47;5031545;28;920;-61
2023/06/03 05:27:33;;;;;;;;;;;;;;;18.80;100.00;99377.97;5031527;28;872;-61
2023/06/03 05:29:59;;;;;;;;;;;;;;;19.12;100.00;99373.69;5031476;28;821;-61
2023/06/03 05:32:26;;;;;;;;;;;;;;;19.31;100.00;99374.41;5031414;28;849;-61
2023/06/03 05:34:53;;;;;;;;;;;;;;;19.30;100.00;99374.88;5031705;28;812;-60
2023/06/03 05:37:19;;;;;;;;;;;;;;;19.25;100.00;99384.69;5031324;28;1937;-60
2023/06/03 05:39:46;;;;;;;;;;;;;;;19.36;100.00;99381.38;5031400;28;860;-61
2023/06/03 05:42:13;;;;;;;;;;;;;;;19.49;100.00;99389.59;5031384;28;870;-61
2023/06/03 05:44:39;;;;;;;;;;;;;;;19.58;100.00;99392.34;5031282;28;856;-61
2023/06/03 05:47:06;;;;;;;;;;;;;;;19.76;100.00;99394.31;5031615;28;875;-61
2023/06/03 05:49:32;;;;;;;;;;;;;;;19.86;100.00;99400.63;5031370;28;840;-62
2023/06/03 05:51:59;;;;;;;;;;;;;;;19.77;100.00;99404.25;5031219;28;805;-61
2023/06/03 05:54:28;;;;;;;;;;;;;;;19.77;100.00;99404.25;5031437;28;856;-61
2023/06/03 05:56:56;;;;;;;;;;;;;;;19.77;100.00;99409.88;5031138;28;1885;-61
2023/06/03 05:59:23;;;;;;;;;;;;;;;19.77;100.00;99407.84;5031169;28;883;-61
2023/06/03 06:01:50;;;;;;;;;;;;;;;19.80;100.00;99414.53;5031193;28;840;-61
2023/06/03 06:04:17;;;;;;;;;;;;;;;19.91;100.00;99414.03;5031212;28;792;-61
2023/06/03 06:06:44;;;;;;;;;;;;;;;19.89;100.00;99414.50;5031095;28;856;-61
2023/06/03 06:09:11;;;;;;;;;;;;;;;20.08;100.00;99423.56;5031248;28;816;-61
2023/06/03 06:11:38;;;;;;;;;;;;;;;20.46;98.63;99421.25;5031394;28;927;-61
2023/06/03 06:14:05;;;;;;;;;;;;;;;20.88;95.41;99420.31;5030798;28;1241;-61
2023/06/03 06:16:32;;;;;;;;;;;;;;;21.38;92.07;99421.19;5031020;28;905;-61
2023/06/03 06:18:58;;;;;;;;;;;;;;;21.93;88.10;99416.88;5031084;28;1973;-61
2023/06/03 06:21:25;;;;;;;;;;;;;;;22.40;82.18;99417.00;5034563;28;955;-61
2023/06/03 06:23:51;;;;;;;;;;;;;;;22.94;78.39;99423.00;5034819;28;875;-61
2023/06/03 06:26:18;;;;;;;;;;;;;;;23.38;76.74;99418.25;5034681;28;919;-62
2023/06/03 06:28:45;;;;;;;;;;;;;;;23.46;76.88;99410.13;5034642;28;820;-61
2023/06/03 06:31:13;;;;;;;;;;;;;;;23.54;77.42;99414.03;5034571;28;836;-61
2023/06/03 06:33:47;;;;;;;;;;;;;;;23.65;76.67;99419.75;5034582;28;895;-61
2023/06/03 06:36:28;;;;;;;;;;;;;;;23.78;75.21;99419.34;5034630;28;828;-61
2023/06/03 06:38:55;;;;;;;;;;;;;;;23.67;74.99;99417.19;5034448;28;1953;-61
2023/06/03 06:41:22;;;;;;;;;;;;;;;23.68;73.68;99417.97;5034693;28;812;-61
2023/06/03 06:43:48;;;;;;;;;;;;;;;23.77;71.50;99421.41;5034294;28;958;-62
2023/06/03 06:46:15;;;;;;;;;;;;;;;23.74;72.15;99419.56;5034350;28;902;-62
2023/06/03 06:48:42;;;;;;;;;;;;;;;23.58;72.80;99417.41;5034255;28;911;-61
2023/06/03 06:51:10;;;;;;;;;;;;;;;23.35;73.12;99428.50;5034147;28;820;-61
2023/06/03 06:53:36;;;;;;;;;;;;;;;23.00;73.35;99428.66;5034202;28;828;-61
2023/06/03 06:56:08;;;;;;;;;;;;;;;22.79;74.02;99434.38;5034440;28;922;-61
2023/06/03 06:58:36;;;;;;;;;;;;;;;22.81;74.71;99442.31;5034015;28;1926;-61
2023/06/03 07:01:07;;;;;;;;;;;;;;;23.01;74.29;99445.13;5034092;28;832;-61
2023/06/03 07:03:33;;;;;;;;;;;;;;;23.00;73.88;99443.56;5034263;28;957;-61
2023/06/03 07:06:00;;;;;;;;;;;;;;;23.18;72.16;99441.69;5034011;28;909;-61
2023/06/03 07:08:26;;;;;;;;;;;;;;;23.13;71.92;99440.38;5033973;28;832;-61
2023/06/03 07:10:59;;;;;;;;;;;;;;;23.42;70.69;99444.19;5034037;28;1003;-61
2023/06/03 07:13:29;;;;;;;;;;;;;;;23.54;69.98;99440.19;5033632;28;1289;-61
2023/06/03 07:15:56;;;;;;;;;;;;;;;23.72;69.31;99443.91;5033731;28;1058;-61
2023/06/03 07:18:25;;;;;;;;;;;;;;;24.02;68.70;99445.13;5033667;28;1906;-62
2023/06/03 07:20:51;;;;;;;;;;;;;;;24.08;68.67;99450.06;5034272;28;1145;-61
2023/06/03 07:23:24;;;;;;;;;;;;;;;24.04;69.33;99455.94;5034079;28;1360;-61
2023/06/03 07:25:52;;;;;;;;;;;;;;;24.05;69.71;99446.97;5033682;28;832;-61
2023/06/03 07:28:39;;;;;;;;;;;;;;;24.17;69.38;99450.59;5033514;28;937;-62
2023/06/03 07:31:08;;;;;;;;;;;;;;;24.89;64.57;99445.00;5032804;28;1739;-61
2023/06/03 07:33:44;;;;;;;;;;;;;;;26.15;51.09;99439.59;5033431;28;828;-62
2023/06/03 07:36:12;;;;;;;;;;;;;;;26.28;45.83;99445.47;5033575;28;844;-62
2023/06/03 07:38:42;;;;;;;;;;;;;;;26.77;43.35;99451.47;5033281;28;1886;-62
2023/06/03 07:41:09;;;;;;;;;;;;;;;26.33;43.82;99458.06;5033944;28;796;-62
2023/06/03 07:43:38;;;;;;;;;;;;;;;25.92;45.38;99464.38;5033897;28;820;-62
2023/06/03 07:46:05;;;;;;;;;;;;;;;26.00;45.53;99459.72;5033540;28;820;-62
2023/06/03 07:48:36;;;;;;;;;;;;;;;27.19;44.34;99459.97;5031905;28;889;-63
2023/06/03 07:51:05;;;;;;;;;;;;;;;28.35;39.90;99460.75;5033121;28;848;-62
2023/06/03 07:53:36;;;;;;;;;;;;;;;28.55;37.93;99454.59;5033121;28;804;-62
2023/06/03 07:56:09;;;;;;;;;;;;;;;28.44;37.47;99471.72;5033050;28;887;-63
2023/06/03 07:58:39;;;;;;;;;;;;;;;27.98;38.95;99471.47;5032931;28;1940;-62
2023/06/03 08:01:05;;;;;;;;;;;;;;;27.89;39.34;99469.00;5032917;28;915;-62
2023/06/03 08:03:32;;;;;;;;;;;;;;;28.00;39.86;99463.19;5032546;28;902;-63
2023/06/03 08:05:59;;;;;;;;;;;;;;;28.28;38.98;99465.72;5032849;28;887;-65
2023/06/03 08:08:34;;;;;;;;;;;;;;;28.62;39.05;99456.81;5032784;28;851;-63
2023/06/03 08:11:01;;;;;;;;;;;;;;;29.14;37.68;99454.03;5032982;28;943;-64
2023/06/03 08:13:28;;;;;;;;;;;;;;;29.41;37.89;99449.97;5032421;28;1363;-63
2023/06/03 08:15:55;;;;;;;;;;;;;;;29.37;36.86;99454.47;5032685;28;875;-63
2023/06/03 08:18:42;;;;;;;;;;;;;;;28.84;37.68;99452.88;5032592;28;1902;-63
2023/06/03 08:21:10;;;;;;;;;;;;;;;28.16;38.80;99455.00;5032340;28;1624;-63
2023/06/03 08:23:37;;;;;;;;;;;;;;;27.84;39.53;99449.91;5032703;28;824;-63
2023/06/03 08:26:04;;;;;;;;;;;;;;;27.52;39.43;99452.50;5032455;28;867;-63
2023/06/03 08:28:31;;;;;;;;;;;;;;;27.13;41.15;99454.34;5032443;28;902;-63
2023/06/03 08:30:58;;;;;;;;;;;;;;;26.62;42.04;99459.53;5032421;28;872;-63
2023/06/03 08:33:25;;;;;;;;;;;;;;;26.17;42.57;99459.69;5032418;28;848;-63
2023/06/03 08:35:52;;;;;;;;;;;;;;;25.83;43.79;99468.22;5032328;28;839;-62
2023/06/03 08:38:19;;;;;;;;;;;;;;;25.47;44.31;99471.56;5032121;28;1937;-62
2023/06/03 08:40:49;;;;;;;;;;;;;;;25.35;44.61;99469.25;5032128;28;839;-63
2023/06/03 08:43:16;;;;;;;;;;;;;;;25.40;44.73;99471.31;5031161;28;895;-63
2023/06/03 08:45:53;;;;;;;;;;;;;;;25.50;44.47;99475.44;5030798;28;2132;-63
2023/06/03 08:48:24;;;;;;;;;;;;;;;25.47;45.39;99471.56;5031985;28;884;-63
2023/06/03 08:50:56;;;;;;;;;;;;;;;25.43;45.91;99470.28;5032038;28;923;-63
2023/06/03 08:53:23;;;;;;;;;;;;;;;25.34;45.82;99470.53;5032002;28;851;-62
2023/06/03 08:55:50;;;;;;;;;;;;;;;25.23;45.92;99474.13;5030662;28;872;-63
2023/06/03 08:58:36;;;;;;;;;;;;;;;25.24;45.98;99478.50;5031821;28;1945;-63
2023/06/03 09:01:03;;;;;;;;;;;;;;;25.44;46.59;99472.59;5031895;28;840;-63
2023/06/03 09:03:32;;;;;;;;;;;;;;;25.61;45.97;99472.59;5031954;28;808;-63
2023/06/03 09:05:59;;;;;;;;;;;;;;;25.73;45.68;99473.34;5031737;28;990;-64
2023/06/03 09:08:26;;;;;;;;;;;;;;;25.80;45.93;99478.50;5031632;28;872;-63
2023/06/03 09:10:54;;;;;;;;;;;;;;;25.91;46.71;99474.94;5030488;28;2193;-63
2023/06/03 09:13:21;;;;;;;;;;;;;;;26.14;46.90;99469.19;5031472;28;1234;-63
2023/06/03 09:15:48;;;;;;;;;;;;;;;26.44;45.83;99475.81;5031782;28;832;-64
2023/06/03 09:18:15;;;;;;;;;;;;;;;26.47;45.25;99471.16;5031497;28;1963;-63
2023/06/03 09:20:42;;;;;;;;;;;;;;;26.33;44.88;99480.72;5031640;28;843;-63
2023/06/03 09:23:11;;;;;;;;;;;;;;;26.18;44.57;99476.16;5031522;28;864;-63
2023/06/03 09:25:37;;;;;;;;;;;;;;;26.36;44.76;99479.72;5031584;28;894;-63
2023/06/03 09:28:04;;;;;;;;;;;;;;;26.49;44.58;99482.75;5031484;28;915;-64
2023/06/03 09:30:35;;;;;;;;;;;;;;;26.47;44.53;99482.50;5031455;28;878;-63
2023/06/03 09:33:01;;;;;;;;;;;;;;;26.25;44.23;99480.50;5031621;28;902;-63
2023/06/03 09:35:27;;;;;;;;;;;;;;;26.25;43.98;99484.13;5031433;28;873;-63
2023/06/03 09:38:01;;;;;;;;;;;;;;;26.13;42.79;99481.84;5031334;28;1939;-63
2023/06/03 10:11:44;;;;;;;;;;;;;;;28.30;40.09;99485.84;5091321;22;1663;-54
2023/06/03 10:14:11;;;;;;;;;;;;;;;28.24;39.96;99496.50;5035040;28;922;-53
2023/06/03 10:16:37;;;;;;;;;;;;;;;28.52;39.39;99491.81;5035054;28;823;-53
2023/06/03 10:19:04;;;;;;;;;;;;;;;28.61;38.85;99492.22;5033514;28;1964;-54
2023/06/03 10:21:30;;;;;;;;;;;;;;;28.81;37.77;99490.94;5034813;28;871;-53
2023/06/03 10:24:00;;;;;;;;;;;;;;;28.73;37.29;99490.00;5034880;28;937;-53
2023/06/03 10:26:26;;;;;;;;;;;;;;;28.84;36.84;99489.84;5033410;28;1283;-52
2023/06/03 10:28:55;;;;;;;;;;;;;;;28.80;36.58;99491.47;5034808;28;855;-55
2023/06/03 10:31:22;;;;;;;;;;;;;;;28.59;36.63;99491.22;5034617;28;946;-52
2023/06/03 10:33:50;;;;;;;;;;;;;;;28.50;36.55;99495.19;5034548;28;907;-53
2023/06/03 10:36:17;;;;;;;;;;;;;;;28.24;36.30;99502.19;5034646;28;882;-54
2023/06/03 10:38:47;;;;;;;;;;;;;;;27.97;36.81;99504.00;5034398;28;1944;-54
2023/06/03 10:41:14;;;;;;;;;;;;;;;27.90;37.64;99496.84;5034399;28;835;-54
2023/06/03 10:43:42;;;;;;;;;;;;;;;28.02;37.99;99505.28;5034402;28;808;-54
2023/06/03 10:46:09;;;;;;;;;;;;;;;27.94;38.04;99505.06;5034406;28;839;-52
2023/06/03 10:48:38;;;;;;;;;;;;;;;27.60;38.42;99507.41;5034539;28;796;-54
2023/06/03 10:51:10;;;;;;;;;;;;;;;27.50;39.46;99501.28;5034289;28;824;-53
2023/06/03 10:53:45;;;;;;;;;;;;;;;27.53;40.11;99499.47;5034477;28;859;-54
2023/06/03 10:56:14;;;;;;;;;;;;;;;27.84;39.86;99495.31;5034125;28;1036;-54
2023/06/03 10:58:42;;;;;;;;;;;;;;;28.03;39.78;99501.13;5034148;28;1894;-54
2023/06/03 11:01:09;;;;;;;;;;;;;;;27.88;40.99;99493.00;5034071;28;907;-53
2023/06/03 11:03:57;;;;;;;;;;;;;;;27.51;41.11;99490.72;5033993;28;908;-54
2023/06/03 11:06:26;;;;;;;;;;;;;;;27.48;40.66;99493.31;5019361;28;2024;-54
2023/06/03 11:08:57;;;;;;;;;;;;;;;27.52;40.26;99483.75;5033846;28;919;-53
2023/06/03 11:11:41;;;;;;;;;;;;;;;27.49;40.37;99492.00;5033726;28;1587;-52
2023/06/03 11:14:08;;;;;;;;;;;;;;;27.88;39.79;99493.75;5033957;28;804;-53
2023/06/03 11:16:53;;;;;;;;;;;;;;;28.30;39.21;99494.38;5034012;28;875;-53
2023/06/03 11:19:33;;;;;;;;;;;;;;;28.27;38.50;99492.59;5033727;28;887;-54
2023/06/03 11:22:00;;;;;;;;;;;;;;;28.65;39.01;99497.59;5033757;28;871;-54
2023/06/03 11:24:42;;;;;;;;;;;;;;;29.26;38.48;99490.31;5033594;28;1904;-52
2023/06/03 11:27:15;;;;;;;;;;;;;;;29.59;37.86;99487.47;5033579;28;792;-53
2023/06/03 11:29:57;;;;;;;;;;;;;;;29.56;37.80;99477.94;5033553;28;871;-54
2023/06/03 11:32:27;;;;;;;;;;;;;;;29.60;37.48;99478.38;5033516;28;831;-53
2023/06/03 11:35:05;;;;;;;;;;;;;;;29.62;36.43;99480.72;5033559;28;863;-54
2023/06/03 11:37:37;;;;;;;;;;;;;;;29.78;36.41;99478.91;5033352;28;1871;-53
2023/06/03 11:40:07;;;;;;;;;;;;;;;29.97;35.97;99473.88;5033281;28;820;-53
2023/06/03 11:42:33;;;;;;;;;;;;;;;29.93;36.54;99468.50;5031960;28;1271;-54
2023/06/03 11:45:19;;;;;;;;;;;;;;;29.82;37.75;99471.56;5033596;28;840;-54
2023/06/03 11:48:01;;;;;;;;;;;;;;;30.13;37.92;99472.81;5033227;28;883;-53
2023/06/03 11:50:29;;;;;;;;;;;;;;;29.54;38.02;99468.41;5033098;28;898;-53
2023/06/03 11:52:56;;;;;;;;;;;;;;;29.35;38.47;99468.47;5033158;28;1033;-53
2023/06/03 11:55:27;;;;;;;;;;;;;;;29.40;38.65;99476.13;5033048;28;800;-55
2023/06/03 11:57:56;;;;;;;;;;;;;;;29.73;38.21;99466.28;5032889;28;1910;-54
2023/06/03 12:00:23;;;;;;;;;;;;;;;30.51;37.88;99471.81;5032994;28;871;-54
2023/06/03 12:02:50;;;;;;;;;;;;;;;31.02;37.15;99465.78;5033033;28;879;-54
2023/06/03 12:05:19;;;;;;;;;;;;;;;31.41;36.72;99472.69;5031609;28;1382;-54
2023/06/03 12:07:55;;;;;;;;;;;;;;;31.69;36.40;99472.00;5032728;28;934;-54
2023/06/03 12:10:22;;;;;;;;;;;;;;;32.09;36.15;99473.81;5032747;28;1254;-54
2023/06/03 12:12:52;;;;;;;;;;;;;;;32.10;36.04;99478.22;5033089;28;903;-53
2023/06/03 12:15:20;;;;;;;;;;;;;;;32.08;35.57;99475.94;5032658;28;957;-54
2023/06/03 12:17:47;;;;;;;;;;;;;;;31.94;35.44;99477.31;5032586;28;1997;-53
2023/06/03 12:20:29;;;;;;;;;;;;;;;31.61;35.18;99476.13;5032593;28;1025;-54
2023/06/03 12:23:05;;;;;;;;;;;;;;;30.97;36.65;99472.41;5032475;28;910;-55
2023/06/03 12:25:33;;;;;;;;;;;;;;;30.48;38.19;99481.47;5032600;28;804;-54
2023/06/03 12:28:22;;;;;;;;;;;;;;;30.11;39.31;99474.66;5032381;28;869;-55
2023/06/03 12:30:50;;;;;;;;;;;;;;;29.97;40.38;99481.66;5032459;28;822;-54
2023/06/03 12:33:18;;;;;;;;;;;;;;;29.87;41.18;99487.00;5032361;28;867;-54
2023/06/03 12:35:54;;;;;;;;;;;;;;;29.29;43.29;99485.63;5032345;28;891;-54
2023/06/03 12:38:26;;;;;;;;;;;;;;;28.84;45.51;99483.41;5032209;28;1926;-54
2023/06/03 12:41:06;;;;;;;;;;;;;;;28.25;46.93;99489.53;5032191;28;824;-54
2023/06/03 12:43:32;;;;;;;;;;;;;;;27.77;49.10;99482.47;5032261;28;943;-54
2023/06/03 12:46:18;;;;;;;;;;;;;;;27.62;50.70;99487.78;5032512;28;879;-54
2023/06/03 12:48:45;;;;;;;;;;;;;;;27.60;51.37;99488.31;5032735;28;781;-54
2023/06/03 12:51:24;;;;;;;;;;;;;;;27.53;51.24;99488.13;5030761;28;1188;-53
2023/06/03 12:53:55;;;;;;;;;;;;;;;27.08;52.36;99489.94;5032128;28;840;-54
2023/06/03 12:56:25;;;;;;;;;;;;;;;26.97;53.50;99480.72;5031979;28;824;-54
2023/06/03 12:58:53;;;;;;;;;;;;;;;26.85;54.10;99480.81;5031912;28;1882;-53
2023/06/03 13:01:19;;;;;;;;;;;;;;;26.73;54.83;99478.53;5030914;28;816;-53
2023/06/03 13:03:47;;;;;;;;;;;;;;;26.72;55.16;99479.84;5032143;28;863;-54
2023/06/03 13:06:13;;;;;;;;;;;;;;;26.66;55.31;99474.97;5031742;28;891;-52
2023/06/03 13:08:41;;;;;;;;;;;;;;;26.60;55.45;99479.88;5031635;28;890;-53
2023/06/03 13:11:08;;;;;;;;;;;;;;;26.61;55.37;99475.78;5031718;28;1450;-54
2023/06/03 13:13:35;;;;;;;;;;;;;;;26.51;55.59;99482.22;5031627;28;932;-53
2023/06/03 13:16:01;;;;;;;;;;;;;;;26.46;55.52;99483.78;5031938;28;895;-54
2023/06/03 13:18:28;;;;;;;;;;;;;;;26.39;55.88;99482.25;5031578;28;1914;-54
2023/06/03 13:20:55;;;;;;;;;;;;;;;26.49;56.08;99477.84;5031650;28;864;-54
2023/06/03 13:23:22;;;;;;;;;;;;;;;26.60;56.19;99487.63;5031535;28;864;-54
2023/06/03 13:25:49;;;;;;;;;;;;;;;26.55;56.13;99485.56;5031655;28;834;-52
2023/06/03 13:28:15;;;;;;;;;;;;;;;26.39;56.32;99490.00;5031762;28;864;-53
2023/06/03 13:30:42;;;;;;;;;;;;;;;26.23;56.41;99491.59;5029577;28;2039;-54
2023/06/03 13:33:09;;;;;;;;;;;;;;;26.19;56.43;99491.09;5031458;28;918;-54
2023/06/03 13:35:35;;;;;;;;;;;;;;;26.16;57.16;99487.25;5031422;28;827;-54
2023/06/03 13:38:02;;;;;;;;;;;;;;;26.26;57.03;99490.53;5031229;28;1882;-53
2023/06/03 13:40:31;;;;;;;;;;;;;;;26.47;56.42;99493.81;5030146;28;1354;-54